KEED/EED METAR and TAF weather

Enter ICAO airport designator
Station Type Date Time Source
KEED METAR 2019/10/21 04:56 UTC NOAA

KEED 210456Z AUTO 33013KT 10SM CLR 23/M14 A3000 RMK AO2 SLP134 T02281139


Station Type Date Time Source
KEED Decoded METAR 2019/10/21 04:56 UTC NOAA

NEEDLES AIRPORT, CA, United States (KEED) 34-46N 114-37W
Oct 21, 2019 - 12:56 AM EDT / 2019.10.21 0456 UTC
Wind: from the NNW (330 degrees) at 15 MPH (13 KT):0
Visibility: 10 mile(s):0
Sky conditions: clear
Temperature: 73.0 F (22.8 C)
Dew Point: 7.0 F (-13.9 C)
Relative Humidity: 7%
Pressure (altimeter): 30 in. Hg (1015 hPa)
ob: KEED 210456Z AUTO 33013KT 10SM CLR 23/M14 A3000 RMK AO2 SLP134 T02281139
cycle: 5

Station Type Date Time Source
KEED TAF 2019/10/21 06:22 UTC NOAA

TAF KEED 210520Z 2106/2206 35012KT P6SM SKC
FM210700 32007KT P6SM SKC
FM211700 01012KT P6SM SKC
FM220200 34008KT P6SM SKC

Example: see airport list